Reva, South Dakota
Current Conditions -  °F | °C
As of 1:53 PM on Sunday 21 Dec 2014 (Local Time) from KHEI Reporting Station
Overcast Overcast  
Wind Chill: 38°   Ceiling: 8500
Heat Index: 41°   Visibility: 10mi
Dew Point: 27°   Wind: 5mph
Humidity: 57%   Direction: 210°SSW
Pressure: 29.38"   Gusts: NA
Location:  45.55°N, 103.08°W
Report Text: KHEI 212053Z AUTO 21004KT 10SM OVC085 05/M03 A2938 RMK AO2 SLP968 T00501028 58014
Loading
Personal Weather Stations






























Interactive Weather Map New forecast layout! Learn more

10-Day Weather Forecast

Advertisements
Track Severe Weather on mobile